Time;durP1;ratioP1;P1;durP2;ratioP2;P2;SDS_P1;SDS_P2;PMS_P1;PMS_P2;Temp;Humidity;BMP_temperature;BMP_pressure;BME280_temperature;BME280_humidity;BME280_pressure;Samples;Min_cycle;Max_cycle;Signal;HPM_P1;HPM_P2
2023/02/12 00:02:20;;;;;;;;;;;;;;;;;;5112376;28;19907;-69
2023/02/12 00:04:46;;;;;;;;;;;;;;;;;;5114193;28;19912;-69
2023/02/12 00:07:12;;;;;;;;;;;;;;;;;;5112682;28;20450;-69
2023/02/12 00:09:38;;;;;;;;;;;;;;;;;;5117393;28;19930;-69
2023/02/12 00:12:04;;;;;;;;;;;;;;;;;;5118116;28;20010;-69
2023/02/12 00:14:30;;;;;;;;;;;;;;;;;;5116746;28;20424;-69
2023/02/12 00:16:55;;;;;;;;;;;;;;;;;;5117622;28;20383;-69
2023/02/12 00:19:21;;;;;;;;;;;;;;;;;;5118162;28;20296;-69
2023/02/12 00:21:47;;;;;;;;;;;;;;;;;;5117976;28;19908;-70
2023/02/12 00:24:13;;;;;;;;;;;;;;;;;;5117513;28;19915;-70
2023/02/12 00:26:39;;;;;;;;;;;;;;;;;;5117801;28;19916;-70
2023/02/12 00:29:05;;;;;;;;;;;;;;;;;;5117773;28;19919;-69
2023/02/12 00:31:31;;;;;;;;;;;;;;;;;;5117297;28;19908;-70
2023/02/12 00:33:58;;;;;;;;;;;;;;;;;;5118190;28;19941;-69
2023/02/12 00:36:24;;;;;;;;;;;;;;;;;;5116049;28;19933;-70
2023/02/12 00:38:49;;;;;;;;;;;;;;;;;;5117712;28;20343;-70
2023/02/12 00:41:16;;;;;;;;;;;;;;;;;;5117954;28;20283;-69
2023/02/12 00:43:42;;;;;;;;;;;;;;;;;;5117167;27;19908;-69
2023/02/12 00:46:07;;;;;;;;;;;;;;;;;;5117321;28;19927;-68
2023/02/12 00:48:33;;;;;;;;;;;;;;;;;;5117518;28;20394;-68
2023/02/12 00:50:59;;;;;;;;;;;;;;;;;;5115673;28;19938;-69
2023/02/12 00:53:25;;;;;;;;;;;;;;;;;;5117574;28;19912;-69
2023/02/12 00:55:51;;;;;;;;;;;;;;;;;;5117494;28;19908;-69
2023/02/12 00:58:17;;;;;;;;;;;;;;;;;;5117041;28;20000;-69
2023/02/12 01:00:43;;;;;;;;;;;;;;;;;;5115903;28;19914;-69
2023/02/12 01:03:09;;;;;;;;;;;;;;;;;;5117177;28;19907;-70
2023/02/12 01:05:35;;;;;;;;;;;;;;;;;;5116923;28;19959;-69
2023/02/12 01:08:01;;;;;;;;;;;;;;;;;;5115878;28;19923;-70
2023/02/12 01:10:27;;;;;;;;;;;;;;;;;;5116977;28;19907;-70
2023/02/12 01:12:53;;;;;;;;;;;;;;;;;;5116684;28;19915;-70
2023/02/12 01:15:19;;;;;;;;;;;;;;;;;;5116915;28;19907;-70
2023/02/12 01:17:45;;;;;;;;;;;;;;;;;;5115613;28;19918;-70
2023/02/12 01:20:11;;;;;;;;;;;;;;;;;;5114712;28;19907;-70
2023/02/12 01:22:37;;;;;;;;;;;;;;;;;;5115481;28;19930;-70
2023/02/12 01:25:03;;;;;;;;;;;;;;;;;;5116733;28;19908;-70
2023/02/12 01:27:29;;;;;;;;;;;;;;;;;;5116199;28;20016;-70
2023/02/12 01:29:55;;;;;;;;;;;;;;;;;;5116722;28;19908;-70
2023/02/12 01:32:21;;;;;;;;;;;;;;;;;;5116899;28;19915;-70
2023/02/12 01:34:47;;;;;;;;;;;;;;;;;;5116257;28;19994;-70
2023/02/12 01:37:13;;;;;;;;;;;;;;;;;;5116827;28;19952;-70
2023/02/12 01:39:39;;;;;;;;;;;;;;;;;;5114796;28;19912;-70
2023/02/12 01:42:05;;;;;;;;;;;;;;;;;;5115191;28;19908;-70
2023/02/12 01:44:31;;;;;;;;;;;;;;;;;;5116457;28;19918;-69
2023/02/12 01:46:57;;;;;;;;;;;;;;;;;;5114503;28;20368;-69
2023/02/12 01:49:23;;;;;;;;;;;;;;;;;;5116353;28;20284;-69
2023/02/12 01:51:48;;;;;;;;;;;;;;;;;;5114948;28;19912;-69
2023/02/12 01:54:14;;;;;;;;;;;;;;;;;;5115891;28;20002;-69
2023/02/12 01:56:40;;;;;;;;;;;;;;;;;;5116144;28;19908;-69
2023/02/12 01:59:06;;;;;;;;;;;;;;;;;;5116094;28;20264;-69
2023/02/12 02:01:32;;;;;;;;;;;;;;;;;;5114409;28;19907;-69
2023/02/12 02:03:59;;;;;;;;;;;;;;;;;;5116079;28;19908;-69
2023/02/12 02:06:26;;;;;;;;;;;;;;;;;;5115904;28;19916;-69
2023/02/12 02:08:52;;;;;;;;;;;;;;;;;;5114259;28;19908;-69
2023/02/12 02:16:47;;;;;;;;;;;;;;;;;;5115437;28;20370;-70
2023/02/12 02:19:13;;;;;;;;;;;;;;;;;;5116392;28;19907;-70
2023/02/12 02:21:39;;;;;;;;;;;;;;;;;;5115656;28;19908;-69
2023/02/12 02:24:05;;;;;;;;;;;;;;;;;;5115206;28;19908;-70
2023/02/12 02:26:31;;;;;;;;;;;;;;;;;;5115499;28;19923;-70
2023/02/12 02:28:57;;;;;;;;;;;;;;;;;;5113886;28;19943;-70
2023/02/12 02:31:22;;;;;;;;;;;;;;;;;;5113382;28;19976;-69
2023/02/12 02:33:48;;;;;;;;;;;;;;;;;;5115381;28;19908;-69
2023/02/12 02:36:14;;;;;;;;;;;;;;;;;;5115004;28;19908;-69
2023/02/12 02:38:40;;;;;;;;;;;;;;;;;;5115529;28;19972;-69
2023/02/12 02:41:06;;;;;;;;;;;;;;;;;;5115328;28;20002;-70
2023/02/12 02:43:32;;;;;;;;;;;;;;;;;;5115076;28;19915;-69
2023/02/12 02:45:58;;;;;;;;;;;;;;;;;;5114972;28;19923;-69
2023/02/12 02:48:24;;;;;;;;;;;;;;;;;;5115178;28;19907;-69
2023/02/12 02:50:50;;;;;;;;;;;;;;;;;;5114705;28;20053;-70
2023/02/12 02:53:16;;;;;;;;;;;;;;;;;;5115045;28;19912;-70
2023/02/12 02:55:42;;;;;;;;;;;;;;;;;;5114963;28;20006;-70
2023/02/12 02:58:08;;;;;;;;;;;;;;;;;;5114570;28;20371;-70
2023/02/12 03:00:34;;;;;;;;;;;;;;;;;;5115072;28;20374;-69
2023/02/12 03:03:00;;;;;;;;;;;;;;;;;;5114878;28;20417;-69
2023/02/12 03:05:26;;;;;;;;;;;;;;;;;;5113118;28;20371;-69
2023/02/12 03:07:51;;;;;;;;;;;;;;;;;;5114726;28;19916;-70
2023/02/12 03:10:17;;;;;;;;;;;;;;;;;;5114772;28;19907;-69
2023/02/12 03:12:43;;;;;;;;;;;;;;;;;;5114299;28;19908;-69
2023/02/12 03:15:09;;;;;;;;;;;;;;;;;;5114631;28;20002;-69
2023/02/12 03:17:35;;;;;;;;;;;;;;;;;;5113354;28;19912;-70
2023/02/12 03:20:01;;;;;;;;;;;;;;;;;;5114148;28;19908;-70
2023/02/12 03:22:27;;;;;;;;;;;;;;;;;;5114622;28;19961;-69
2023/02/12 03:24:53;;;;;;;;;;;;;;;;;;5114492;28;19908;-70
2023/02/12 03:27:19;;;;;;;;;;;;;;;;;;5113975;28;19922;-69
2023/02/12 03:29:45;;;;;;;;;;;;;;;;;;5114678;28;19911;-70
2023/02/12 03:32:11;;;;;;;;;;;;;;;;;;5114513;28;19907;-70
2023/02/12 03:34:37;;;;;;;;;;;;;;;;;;5114974;28;20302;-70
2023/02/12 03:37:03;;;;;;;;;;;;;;;;;;5114468;28;20282;-69
2023/02/12 03:39:29;;;;;;;;;;;;;;;;;;5113961;28;20341;-70
2023/02/12 03:41:55;;;;;;;;;;;;;;;;;;5114245;28;20395;-69
2023/02/12 03:44:21;;;;;;;;;;;;;;;;;;5114558;28;19915;-69
2023/02/12 03:46:47;;;;;;;;;;;;;;;;;;5113620;28;19970;-70
2023/02/12 03:49:13;;;;;;;;;;;;;;;;;;5114298;28;20368;-70
2023/02/12 03:51:39;;;;;;;;;;;;;;;;;;5114536;28;20241;-70
2023/02/12 03:54:05;;;;;;;;;;;;;;;;;;5112613;28;19911;-70
2023/02/12 03:56:31;;;;;;;;;;;;;;;;;;5114191;28;19951;-70
2023/02/12 03:58:57;;;;;;;;;;;;;;;;;;5114335;28;19954;-70
2023/02/12 04:01:23;;;;;;;;;;;;;;;;;;5113841;28;19912;-70
2023/02/12 04:03:49;;;;;;;;;;;;;;;;;;5112809;28;19914;-70
2023/02/12 04:06:15;;;;;;;;;;;;;;;;;;5114061;28;19963;-69
2023/02/12 04:08:41;;;;;;;;;;;;;;;;;;5113755;28;20284;-70
2023/02/12 04:11:07;;;;;;;;;;;;;;;;;;5114058;28;20312;-69
2023/02/12 04:13:33;;;;;;;;;;;;;;;;;;5114087;28;20326;-70
2023/02/12 04:15:59;;;;;;;;;;;;;;;;;;5113704;28;20010;-70
2023/02/12 04:18:25;;;;;;;;;;;;;;;;;;5114028;28;19915;-69
2023/02/12 04:20:51;;;;;;;;;;;;;;;;;;5113962;28;19908;-70
2023/02/12 04:23:17;;;;;;;;;;;;;;;;;;5113577;28;19911;-69
2023/02/12 04:25:42;;;;;;;;;;;;;;;;;;5112736;28;19912;-70
2023/02/12 04:28:08;;;;;;;;;;;;;;;;;;5112536;28;19916;-70
2023/02/12 04:30:34;;;;;;;;;;;;;;;;;;5113507;28;19907;-70
2023/02/12 04:33:00;;;;;;;;;;;;;;;;;;5113837;28;20023;-70
2023/02/12 04:35:26;;;;;;;;;;;;;;;;;;5113895;28;19953;-70
2023/02/12 04:37:52;;;;;;;;;;;;;;;;;;5113846;28;20006;-70
2023/02/12 04:40:18;;;;;;;;;;;;;;;;;;5113767;28;20383;-70
2023/02/12 04:42:44;;;;;;;;;;;;;;;;;;5112168;28;20380;-70
2023/02/12 04:45:10;;;;;;;;;;;;;;;;;;5113757;28;19911;-70
2023/02/12 04:47:36;;;;;;;;;;;;;;;;;;5113511;28;19919;-69
2023/02/12 04:50:02;;;;;;;;;;;;;;;;;;5113272;28;19991;-70
2023/02/12 04:52:28;;;;;;;;;;;;;;;;;;5113649;28;19912;-70
2023/02/12 04:54:54;;;;;;;;;;;;;;;;;;5116030;28;19908;-70
2023/02/12 04:57:20;;;;;;;;;;;;;;;;;;5116953;28;19954;-70
2023/02/12 04:59:46;;;;;;;;;;;;;;;;;;5117328;28;19912;-70
2023/02/12 05:02:12;;;;;;;;;;;;;;;;;;5117262;28;19915;-69
2023/02/12 05:04:38;;;;;;;;;;;;;;;;;;5117016;28;19954;-70
2023/02/12 05:07:04;;;;;;;;;;;;;;;;;;5117189;28;19915;-69
2023/02/12 05:09:30;;;;;;;;;;;;;;;;;;5117222;28;19914;-69
2023/02/12 05:11:56;;;;;;;;;;;;;;;;;;5116682;28;19916;-70
2023/02/12 05:14:21;;;;;;;;;;;;;;;;;;5117052;28;20317;-69
2023/02/12 05:16:47;;;;;;;;;;;;;;;;;;5117293;28;19961;-70
2023/02/12 05:19:13;;;;;;;;;;;;;;;;;;5115202;28;19912;-69
2023/02/12 05:21:39;;;;;;;;;;;;;;;;;;5116965;28;19908;-70
2023/02/12 05:24:05;;;;;;;;;;;;;;;;;;5115683;28;20440;-70
2023/02/12 05:26:31;;;;;;;;;;;;;;;;;;5116328;28;20257;-70
2023/02/12 05:28:57;;;;;;;;;;;;;;;;;;5116823;28;20279;-69
2023/02/12 05:31:23;;;;;;;;;;;;;;;;;;5116731;28;19961;-70
2023/02/12 05:33:49;;;;;;;;;;;;;;;;;;5116283;28;19943;-69
2023/02/12 05:36:15;;;;;;;;;;;;;;;;;;5116702;28;19916;-71
2023/02/12 05:38:41;;;;;;;;;;;;;;;;;;5116660;28;20382;-69
2023/02/12 05:41:07;;;;;;;;;;;;;;;;;;5116623;28;20421;-69
2023/02/12 05:43:33;;;;;;;;;;;;;;;;;;5115274;28;19908;-70
2023/02/12 05:45:59;;;;;;;;;;;;;;;;;;5114570;28;19918;-69
2023/02/12 05:48:25;;;;;;;;;;;;;;;;;;5115303;28;19976;-70
2023/02/12 05:50:51;;;;;;;;;;;;;;;;;;5116389;28;19908;-69
2023/02/12 05:53:17;;;;;;;;;;;;;;;;;;5115908;28;20007;-69
2023/02/12 05:55:43;;;;;;;;;;;;;;;;;;5116212;28;19915;-70
2023/02/12 05:58:09;;;;;;;;;;;;;;;;;;5114917;28;19908;-70
2023/02/12 06:00:35;;;;;;;;;;;;;;;;;;5114509;28;19956;-69
2023/02/12 06:03:01;;;;;;;;;;;;;;;;;;5116090;28;19953;-70
2023/02/12 06:05:27;;;;;;;;;;;;;;;;;;5114740;28;19908;-70
2023/02/12 06:07:53;;;;;;;;;;;;;;;;;;5115563;28;19916;-70
2023/02/12 06:10:19;;;;;;;;;;;;;;;;;;5115932;28;19907;-70
2023/02/12 06:12:45;;;;;;;;;;;;;;;;;;5115913;28;20287;-69
2023/02/12 06:15:11;;;;;;;;;;;;;;;;;;5115558;28;20006;-70
2023/02/12 06:17:37;;;;;;;;;;;;;;;;;;5115776;28;19915;-69
2023/02/12 06:20:02;;;;;;;;;;;;;;;;;;5114563;28;19918;-69
2023/02/12 06:22:28;;;;;;;;;;;;;;;;;;5115356;28;20337;-70
2023/02/12 06:24:54;;;;;;;;;;;;;;;;;;5115668;28;20321;-70
2023/02/12 06:27:20;;;;;;;;;;;;;;;;;;5115488;28;19923;-70
2023/02/12 06:29:46;;;;;;;;;;;;;;;;;;5115178;28;19908;-70
2023/02/12 06:32:14;;;;;;;;;;;;;;;;;;5115437;28;19961;-70
2023/02/12 06:34:40;;;;;;;;;;;;;;;;;;5115445;28;20300;-70
2023/02/12 06:37:06;;;;;;;;;;;;;;;;;;5115054;28;19919;-69
2023/02/12 06:39:31;;;;;;;;;;;;;;;;;;5115475;28;19908;-69
2023/02/12 06:41:57;;;;;;;;;;;;;;;;;;5115109;28;19914;-69
2023/02/12 06:44:23;;;;;;;;;;;;;;;;;;5115325;28;19908;-69
2023/02/12 06:46:49;;;;;;;;;;;;;;;;;;5115119;28;19927;-69
2023/02/12 06:49:15;;;;;;;;;;;;;;;;;;5114817;28;19911;-69
2023/02/12 06:51:41;;;;;;;;;;;;;;;;;;5115278;28;19908;-69
2023/02/12 06:54:07;;;;;;;;;;;;;;;;;;5113778;28;19915;-69
2023/02/12 06:56:33;;;;;;;;;;;;;;;;;;5113341;28;19912;-70
2023/02/12 06:59:00;;;;;;;;;;;;;;;;;;5115071;28;19915;-70
2023/02/12 07:01:26;;;;;;;;;;;;;;;;;;5113713;28;20072;-69
2023/02/12 07:03:51;;;;;;;;;;;;;;;;;;5113248;28;20383;-70
2023/02/12 07:06:17;;;;;;;;;;;;;;;;;;5113511;28;19915;-69
2023/02/12 07:08:43;;;;;;;;;;;;;;;;;;5114872;28;19911;-70
2023/02/12 07:11:09;;;;;;;;;;;;;;;;;;5114522;28;19915;-69
2023/02/12 07:13:35;;;;;;;;;;;;;;;;;;5113512;28;20404;-69
2023/02/12 07:16:01;;;;;;;;;;;;;;;;;;5114655;28;19931;-69
2023/02/12 07:18:27;;;;;;;;;;;;;;;;;;5113897;28;19912;-69
2023/02/12 07:20:53;;;;;;;;;;;;;;;;;;5114824;28;19908;-69
2023/02/12 07:23:19;;;;;;;;;;;;;;;;;;5113677;28;19908;-69
2023/02/12 07:25:45;;;;;;;;;;;;;;;;;;5112822;28;19912;-70
2023/02/12 07:28:11;;;;;;;;;;;;;;;;;;5114622;28;19922;-69
2023/02/12 07:30:37;;;;;;;;;;;;;;;;;;5113052;28;19908;-69
2023/02/12 07:33:03;;;;;;;;;;;;;;;;;;5114165;28;20065;-69
2023/02/12 07:35:29;;;;;;;;;;;;;;;;;;5114393;28;19912;-69
2023/02/12 07:37:55;;;;;;;;;;;;;;;;;;5114413;28;20272;-69
2023/02/12 07:40:20;;;;;;;;;;;;;;;;;;5113974;28;20317;-69
2023/02/12 07:42:52;;;;;;;;;;;;;;;;;;5114367;28;19908;-70
2023/02/12 07:45:18;;;;;;;;;;;;;;;;;;5112721;28;19930;-69
2023/02/12 07:47:44;;;;;;;;;;;;;;;;;;5114345;28;20368;-69
2023/02/12 07:50:10;;;;;;;;;;;;;;;;;;5114254;28;19908;-70
2023/02/12 07:52:36;;;;;;;;;;;;;;;;;;5112551;28;19916;-68
2023/02/12 07:55:02;;;;;;;;;;;;;;;;;;5112977;28;19908;-70
2023/02/12 07:57:28;;;;;;;;;;;;;;;;;;5114362;28;19998;-68
2023/02/12 07:59:54;;;;;;;;;;;;;;;;;;5113968;28;19954;-70
2023/02/12 08:02:20;;;;;;;;;;;;;;;;;;5114145;28;19914;-68
2023/02/12 08:04:46;;;;;;;;;;;;;;;;;;5112932;28;20275;-69
2023/02/12 08:07:12;;;;;;;;;;;;;;;;;;5113628;28;19923;-70
2023/02/12 08:09:37;;;;;;;;;;;;;;;;;;5114113;28;19990;-68
2023/02/12 08:12:03;;;;;;;;;;;;;;;;;;5114128;28;19914;-68
2023/02/12 08:14:29;;;;;;;;;;;;;;;;;;5112392;28;19908;-68
2023/02/12 08:16:55;;;;;;;;;;;;;;;;;;5114026;28;19978;-68
2023/02/12 08:19:21;;;;;;;;;;;;;;;;;;5114050;28;19908;-69
2023/02/12 08:21:47;;;;;;;;;;;;;;;;;;5113588;28;19907;-70
2023/02/12 08:24:13;;;;;;;;;;;;;;;;;;5112671;28;19908;-69
2023/02/12 08:26:39;;;;;;;;;;;;;;;;;;5113816;28;19912;-69
2023/02/12 08:29:05;;;;;;;;;;;;;;;;;;5114749;28;19977;-69
2023/02/12 08:31:31;;;;;;;;;;;;;;;;;;5117877;28;20007;-69
2023/02/12 08:33:57;;;;;;;;;;;;;;;;;;5117829;28;19914;-69
2023/02/12 08:36:23;;;;;;;;;;;;;;;;;;5117433;28;19912;-69
2023/02/12 08:38:49;;;;;;;;;;;;;;;;;;5116353;28;19907;-69
2023/02/12 08:41:15;;;;;;;;;;;;;;;;;;5117082;28;20298;-69
2023/02/12 08:43:41;;;;;;;;;;;;;;;;;;5117082;28;19933;-69
2023/02/12 08:46:07;;;;;;;;;;;;;;;;;;5117320;28;19965;-70
2023/02/12 08:48:33;;;;;;;;;;;;;;;;;;5117527;28;20344;-69
2023/02/12 08:50:59;;;;;;;;;;;;;;;;;;5117930;28;19931;-69
2023/02/12 08:53:25;;;;;;;;;;;;;;;;;;5117460;28;20360;-69
2023/02/12 08:55:51;;;;;;;;;;;;;;;;;;5116965;28;20363;-69
2023/02/12 08:58:17;;;;;;;;;;;;;;;;;;5117363;28;19912;-69
2023/02/12 09:00:42;;;;;;;;;;;;;;;;;;5117229;28;20330;-69
2023/02/12 09:03:08;;;;;;;;;;;;;;;;;;5117076;28;19908;-69
2023/02/12 09:05:34;;;;;;;;;;;;;;;;;;5115945;28;19960;-69
2023/02/12 09:08:00;;;;;;;;;;;;;;;;;;5115823;28;19986;-70
2023/02/12 09:10:26;;;;;;;;;;;;;;;;;;5115433;28;19915;-69
2023/02/12 09:12:52;;;;;;;;;;;;;;;;;;5115791;28;19908;-69
2023/02/12 09:15:18;;;;;;;;;;;;;;;;;;5117088;28;20002;-69
2023/02/12 09:17:44;;;;;;;;;;;;;;;;;;5115263;28;19915;-70
2023/02/12 09:20:10;;;;;;;;;;;;;;;;;;5117055;28;19908;-69
2023/02/12 09:22:37;;;;;;;;;;;;;;;;;;5116977;28;19908;-71
2023/02/12 09:25:03;;;;;;;;;;;;;;;;;;5116462;28;19960;-72
2023/02/12 09:27:29;;;;;;;;;;;;;;;;;;5116709;28;19919;-69
2023/02/12 09:29:55;;;;;;;;;;;;;;;;;;5116812;28;19912;-69
2023/02/12 09:32:21;;;;;;;;;;;;;;;;;;5116286;28;19914;-69
2023/02/12 09:34:47;;;;;;;;;;;;;;;;;;5116657;28;19908;-69
2023/02/12 09:37:13;;;;;;;;;;;;;;;;;;5116606;28;19908;-69
2023/02/12 09:39:39;;;;;;;;;;;;;;;;;;5115824;28;19991;-69
2023/02/12 09:42:05;;;;;;;;;;;;;;;;;;5116498;28;19918;-69
2023/02/12 09:44:31;;;;;;;;;;;;;;;;;;5116457;28;19951;-69
2023/02/12 09:46:57;;;;;;;;;;;;;;;;;;5115794;28;19952;-69
2023/02/12 09:49:23;;;;;;;;;;;;;;;;;;5116375;28;19915;-69
2023/02/12 09:51:50;;;;;;;;;;;;;;;;;;5116661;28;19912;-69
2023/02/12 09:54:16;;;;;;;;;;;;;;;;;;5116465;28;19923;-69
2023/02/12 09:56:42;;;;;;;;;;;;;;;;;;5116302;28;19916;-69
2023/02/12 09:59:08;;;;;;;;;;;;;;;;;;5114446;28;19908;-69
2023/02/12 10:01:34;;;;;;;;;;;;;;;;;;5116057;28;19914;-69
2023/02/12 10:03:59;;;;;;;;;;;;;;;;;;5116109;28;19953;-69
2023/02/12 10:06:26;;;;;;;;;;;;;;;;;;5115577;28;20333;-68
2023/02/12 10:08:52;;;;;;;;;;;;;;;;;;5114757;28;19912;-69
2023/02/12 10:11:17;;;;;;;;;;;;;;;;;;5115898;28;19908;-70
2023/02/12 10:13:44;;;;;;;;;;;;;;;;;;5115654;28;19908;-69
2023/02/12 10:16:10;;;;;;;;;;;;;;;;;;5116100;28;19908;-69
2023/02/12 10:18:36;;;;;;;;;;;;;;;;;;5115773;28;20301;-69
2023/02/12 10:21:02;;;;;;;;;;;;;;;;;;5115305;28;20329;-69
2023/02/12 10:23:27;;;;;;;;;;;;;;;;;;5115627;28;20287;-69
2023/02/12 10:25:53;;;;;;;;;;;;;;;;;;5114402;28;19908;-70
2023/02/12 10:28:19;;;;;;;;;;;;;;;;;;5115140;28;19922;-70
2023/02/12 10:30:45;;;;;;;;;;;;;;;;;;5115504;28;20399;-70
2023/02/12 10:33:11;;;;;;;;;;;;;;;;;;5115469;28;19908;-69
2023/02/12 10:35:37;;;;;;;;;;;;;;;;;;5115090;28;19912;-69
2023/02/12 10:38:03;;;;;;;;;;;;;;;;;;5115455;28;19998;-69
2023/02/12 10:40:31;;;;;;;;;;;;;;;;;;5115314;28;19934;-69
2023/02/12 10:42:57;;;;;;;;;;;;;;;;;;5113693;28;19908;-69
2023/02/12 10:45:23;;;;;;;;;;;;;;;;;;5113960;28;19908;-69
2023/02/12 10:47:49;;;;;;;;;;;;;;;;;;5113760;28;20390;-69
2023/02/12 10:50:15;;;;;;;;;;;;;;;;;;5114682;28;20499;-69
2023/02/12 10:52:41;;;;;;;;;;;;;;;;;;5113126;28;19908;-70
2023/02/12 10:55:07;;;;;;;;;;;;;;;;;;5114957;28;20381;-69
2023/02/12 10:57:33;;;;;;;;;;;;;;;;;;5115056;28;19908;-68
2023/02/12 10:59:59;;;;;;;;;;;;;;;;;;5113597;28;19915;-69
2023/02/12 11:02:25;;;;;;;;;;;;;;;;;;5114541;28;19911;-69
2023/02/12 11:04:51;;;;;;;;;;;;;;;;;;5114968;28;19939;-68
2023/02/12 11:07:17;;;;;;;;;;;;;;;;;;5114843;28;19958;-69
2023/02/12 11:09:46;;;;;;;;;;;;;;;;;;5114348;28;19966;-69
2023/02/12 11:12:12;;;;;;;;;;;;;;;;;;5115300;28;19908;-68
2023/02/12 11:14:38;;;;;;;;;;;;;;;;;;5113502;28;20416;-69
2023/02/12 11:17:04;;;;;;;;;;;;;;;;;;5114246;28;20367;-68
2023/02/12 11:19:30;;;;;;;;;;;;;;;;;;5114656;28;19907;-69
2023/02/12 11:21:56;;;;;;;;;;;;;;;;;;5114636;28;19912;-69
2023/02/12 11:24:22;;;;;;;;;;;;;;;;;;5114116;28;19915;-69
2023/02/12 11:26:48;;;;;;;;;;;;;;;;;;5114519;28;19916;-70
2023/02/12 11:29:14;;;;;;;;;;;;;;;;;;5114551;28;19915;-69
2023/02/12 11:31:40;;;;;;;;;;;;;;;;;;5114125;28;19908;-69
2023/02/12 11:34:06;;;;;;;;;;;;;;;;;;5114476;28;20002;-70
2023/02/12 11:36:32;;;;;;;;;;;;;;;;;;5114328;28;19955;-69
2023/02/12 11:38:58;;;;;;;;;;;;;;;;;;5114032;28;19915;-69
2023/02/12 11:41:24;;;;;;;;;;;;;;;;;;5114340;28;19953;-69
2023/02/12 11:43:50;;;;;;;;;;;;;;;;;;5114158;28;19908;-69
2023/02/12 11:46:15;;;;;;;;;;;;;;;;;;5113756;28;19931;-69
2023/02/12 11:48:43;;;;;;;;;;;;;;;;;;5112936;28;20010;-69
2023/02/12 11:51:09;;;;;;;;;;;;;;;;;;5114354;28;19907;-69
2023/02/12 11:53:35;;;;;;;;;;;;;;;;;;5113819;28;19949;-69
2023/02/12 11:56:01;;;;;;;;;;;;;;;;;;5114215;28;20406;-69
2023/02/12 11:58:27;;;;;;;;;;;;;;;;;;5113994;28;19908;-69
2023/02/12 12:00:53;;;;;;;;;;;;;;;;;;5114204;28;19908;-69
2023/02/12 12:03:18;;;;;;;;;;;;;;;;;;5115858;28;19908;-69
2023/02/12 12:05:44;;;;;;;;;;;;;;;;;;5117968;28;19961;-70
2023/02/12 12:08:10;;;;;;;;;;;;;;;;;;5118544;28;19920;-70
2023/02/12 12:10:36;;;;;;;;;;;;;;;;;;5118276;28;19908;-70
2023/02/12 12:13:02;;;;;;;;;;;;;;;;;;5116498;28;19908;-70
2023/02/12 12:20:58;;;;;;;;;;;;;;;;;;5117949;28;19961;-70
2023/02/12 12:23:23;;;;;;;;;;;;;;;;;;5116730;28;19911;-69
2023/02/12 12:25:49;;;;;;;;;;;;;;;;;;5117989;28;19973;-69
2023/02/12 12:28:15;;;;;;;;;;;;;;;;;;5116136;28;19920;-69
2023/02/12 12:30:41;;;;;;;;;;;;;;;;;;5117776;28;19912;-70
2023/02/12 12:33:07;;;;;;;;;;;;;;;;;;5117823;28;20011;-69
2023/02/12 12:35:33;;;;;;;;;;;;;;;;;;5116137;28;19912;-69
2023/02/12 12:37:59;;;;;;;;;;;;;;;;;;5117712;28;19908;-69
2023/02/12 12:40:25;;;;;;;;;;;;;;;;;;5116446;28;19936;-70
2023/02/12 12:42:51;;;;;;;;;;;;;;;;;;5117213;28;19908;-70
2023/02/12 12:45:17;;;;;;;;;;;;;;;;;;5116371;28;19922;-70
2023/02/12 12:47:43;;;;;;;;;;;;;;;;;;5117149;28;20317;-70
2023/02/12 12:50:09;;;;;;;;;;;;;;;;;;5117550;28;19907;-70
2023/02/12 12:52:35;;;;;;;;;;;;;;;;;;5117532;28;19914;-70
2023/02/12 12:55:01;;;;;;;;;;;;;;;;;;5115760;28;19912;-70
2023/02/12 12:57:27;;;;;;;;;;;;;;;;;;5117635;28;19908;-70
2023/02/12 12:59:53;;;;;;;;;;;;;;;;;;5116117;28;19961;-70
2023/02/12 13:02:19;;;;;;;;;;;;;;;;;;5116899;28;20380;-70
2023/02/12 13:04:45;;;;;;;;;;;;;;;;;;5117269;28;20383;-70
2023/02/12 13:07:11;;;;;;;;;;;;;;;;;;5117145;28;20368;-70
2023/02/12 13:09:36;;;;;;;;;;;;;;;;;;5116799;28;19908;-70
2023/02/12 13:12:02;;;;;;;;;;;;;;;;;;5117124;28;19908;-70
2023/02/12 13:14:28;;;;;;;;;;;;;;;;;;5115078;28;20360;-70
2023/02/12 13:16:54;;;;;;;;;;;;;;;;;;5115344;28;19908;-70
2023/02/12 13:19:20;;;;;;;;;;;;;;;;;;5117056;28;19908;-70
2023/02/12 13:21:46;;;;;;;;;;;;;;;;;;5116999;28;19951;-70
2023/02/12 13:24:12;;;;;;;;;;;;;;;;;;5116579;28;19974;-70
2023/02/12 13:26:38;;;;;;;;;;;;;;;;;;5116886;28;19959;-70
2023/02/12 13:29:04;;;;;;;;;;;;;;;;;;5115551;28;19933;-70
2023/02/12 13:31:30;;;;;;;;;;;;;;;;;;5116473;28;19915;-70
2023/02/12 13:33:56;;;;;;;;;;;;;;;;;;5116733;28;19915;-70
2023/02/12 13:36:22;;;;;;;;;;;;;;;;;;5116609;28;20024;-70
2023/02/12 13:38:48;;;;;;;;;;;;;;;;;;5116237;28;19911;-70
2023/02/12 13:41:14;;;;;;;;;;;;;;;;;;5116534;28;19908;-69
2023/02/12 13:43:40;;;;;;;;;;;;;;;;;;5116576;28;19951;-69
2023/02/12 13:46:06;;;;;;;;;;;;;;;;;;5115955;28;19923;-69
2023/02/12 13:48:32;;;;;;;;;;;;;;;;;;5116645;28;19923;-69
2023/02/12 13:50:58;;;;;;;;;;;;;;;;;;5116423;28;19908;-69
2023/02/12 13:53:23;;;;;;;;;;;;;;;;;;5116737;28;19912;-70
2023/02/12 13:55:49;;;;;;;;;;;;;;;;;;5115039;28;19947;-70
2023/02/12 13:58:15;;;;;;;;;;;;;;;;;;5115784;28;19912;-70
2023/02/12 14:00:41;;;;;;;;;;;;;;;;;;5116222;28;19920;-70
2023/02/12 14:03:07;;;;;;;;;;;;;;;;;;5116447;28;19952;-70
2023/02/12 14:05:33;;;;;;;;;;;;;;;;;;5115637;28;19908;-70
2023/02/12 14:07:59;;;;;;;;;;;;;;;;;;5116062;28;19915;-70
2023/02/12 14:10:25;;;;;;;;;;;;;;;;;;5116004;28;19911;-70
2023/02/12 14:12:51;;;;;;;;;;;;;;;;;;5115513;28;19915;-70
2023/02/12 14:15:17;;;;;;;;;;;;;;;;;;5114686;28;19961;-70
2023/02/12 14:17:43;;;;;;;;;;;;;;;;;;5115842;28;20314;-69
2023/02/12 14:20:09;;;;;;;;;;;;;;;;;;5115373;28;20347;-70
2023/02/12 14:22:36;;;;;;;;;;;;;;;;;;5114504;28;19957;-70
2023/02/12 14:25:02;;;;;;;;;;;;;;;;;;5115732;27;19908;-70
2023/02/12 14:27:28;;;;;;;;;;;;;;;;;;5114268;28;19923;-70
2023/02/12 14:29:54;;;;;;;;;;;;;;;;;;5114313;28;19908;-70
2023/02/12 14:32:20;;;;;;;;;;;;;;;;;;5115576;28;19912;-70
2023/02/12 14:34:45;;;;;;;;;;;;;;;;;;5113874;28;19919;-70
2023/02/12 14:37:11;;;;;;;;;;;;;;;;;;5115513;28;20015;-70
2023/02/12 14:39:37;;;;;;;;;;;;;;;;;;5115401;28;19941;-70
2023/02/12 14:42:03;;;;;;;;;;;;;;;;;;5115093;28;19915;-70
2023/02/12 14:44:29;;;;;;;;;;;;;;;;;;5114059;28;19907;-70
2023/02/12 14:46:55;;;;;;;;;;;;;;;;;;5115048;28;19955;-70
2023/02/12 14:49:21;;;;;;;;;;;;;;;;;;5114925;28;19934;-70
2023/02/12 14:51:47;;;;;;;;;;;;;;;;;;5115440;28;19911;-70
2023/02/12 14:54:13;;;;;;;;;;;;;;;;;;5115689;28;19950;-70
2023/02/12 14:56:39;;;;;;;;;;;;;;;;;;5114599;28;20364;-69
2023/02/12 14:59:05;;;;;;;;;;;;;;;;;;5113729;28;20321;-69
2023/02/12 15:01:31;;;;;;;;;;;;;;;;;;5114595;28;20329;-70
2023/02/12 15:03:57;;;;;;;;;;;;;;;;;;5115059;28;20241;-70
2023/02/12 15:06:24;;;;;;;;;;;;;;;;;;5113780;28;20287;-70
2023/02/12 15:08:50;;;;;;;;;;;;;;;;;;5114471;28;19912;-70
2023/02/12 15:11:16;;;;;;;;;;;;;;;;;;5114978;28;19911;-70
2023/02/12 15:13:42;;;;;;;;;;;;;;;;;;5115028;28;19922;-70
2023/02/12 15:16:08;;;;;;;;;;;;;;;;;;5114361;28;19908;-69
2023/02/12 15:18:33;;;;;;;;;;;;;;;;;;5114751;28;19946;-69
2023/02/12 15:21:00;;;;;;;;;;;;;;;;;;5114651;28;19908;-70
2023/02/12 15:23:26;;;;;;;;;;;;;;;;;;5114242;28;19911;-70
2023/02/12 15:25:52;;;;;;;;;;;;;;;;;;5114797;28;19998;-70
2023/02/12 15:28:18;;;;;;;;;;;;;;;;;;5114533;28;19916;-69
2023/02/12 15:30:44;;;;;;;;;;;;;;;;;;5114155;28;19907;-70
2023/02/12 15:33:09;;;;;;;;;;;;;;;;;;5113215;28;19914;-70
2023/02/12 15:35:35;;;;;;;;;;;;;;;;;;5113109;28;19912;-70
2023/02/12 15:38:02;;;;;;;;;;;;;;;;;;5113657;28;19907;-70
2023/02/12 15:40:28;;;;;;;;;;;;;;;;;;5114415;28;19908;-69
2023/02/12 15:42:54;;;;;;;;;;;;;;;;;;5114362;28;19968;-70
2023/02/12 15:45:20;;;;;;;;;;;;;;;;;;5113984;28;19912;-70
2023/02/12 15:47:46;;;;;;;;;;;;;;;;;;5114003;28;19924;-71
2023/02/12 15:50:15;;;;;;;;;;;;;;;;;;5113773;28;20486;-71
2023/02/12 15:52:41;;;;;;;;;;;;;;;;;;5112583;28;20253;-70
2023/02/12 15:55:07;;;;;;;;;;;;;;;;;;5114197;28;20309;-72
2023/02/12 15:57:32;;;;;;;;;;;;;;;;;;5114204;28;19915;-72
2023/02/12 15:59:58;;;;;;;;;;;;;;;;;;5114153;28;20010;-71
2023/02/12 16:02:24;;;;;;;;;;;;;;;;;;5114213;28;19915;-70
2023/02/12 16:04:50;;;;;;;;;;;;;;;;;;5113666;28;19908;-72
2023/02/12 16:07:16;;;;;;;;;;;;;;;;;;5114031;28;19925;-70
2023/02/12 16:09:42;;;;;;;;;;;;;;;;;;5114674;28;19908;-70
2023/02/12 16:12:10;;;;;;;;;;;;;;;;;;5112426;28;20326;-70
2023/02/12 16:14:39;;;;;;;;;;;;;;;;;;5114079;28;20364;-70
2023/02/12 16:17:05;;;;;;;;;;;;;;;;;;5113047;28;20288;-69
2023/02/12 16:19:31;;;;;;;;;;;;;;;;;;5113839;28;19961;-70
2023/02/12 16:21:57;;;;;;;;;;;;;;;;;;5114080;28;20359;-70
2023/02/12 16:24:23;;;;;;;;;;;;;;;;;;5112669;28;19922;-69
2023/02/12 16:26:50;;;;;;;;;;;;;;;;;;5113738;28;19915;-71
2023/02/12 16:29:16;;;;;;;;;;;;;;;;;;5114291;28;19912;-70
2023/02/12 16:31:42;;;;;;;;;;;;;;;;;;5114528;28;19980;-71
2023/02/12 16:34:07;;;;;;;;;;;;;;;;;;5114092;28;19914;-72
2023/02/12 16:36:33;;;;;;;;;;;;;;;;;;5114622;28;20371;-72
2023/02/12 16:38:59;;;;;;;;;;;;;;;;;;5112734;28;20022;-72
2023/02/12 16:41:26;;;;;;;;;;;;;;;;;;5112327;28;20279;-72
2023/02/12 16:43:51;;;;;;;;;;;;;;;;;;5114686;28;19915;-71
2023/02/12 16:46:17;;;;;;;;;;;;;;;;;;5113623;28;19999;-70
2023/02/12 16:48:43;;;;;;;;;;;;;;;;;;5113387;28;19916;-71